aviador You're here:

UBBN Decoded Metar

NAKHCHIVAN in AZERBAIJAN
Report Time2017-08-24 06:30:00
UTC Time2017-08-24 06:59:54
Flight Rules vfr VFR
Wind130° at 08 kt
W.Decomp.*RWY 14: 7.8 kt HW 1.8 kt LCW
W.Rank130° ranks 2
Current wind is above 130° avg. (7.3)
Visibility9999 m
Phenomena:N/A
Clouds:N/A
Expected CloudBase > 7,200 ft AGL from Temp-Dew spread
CeilingNone
Temp30°C (ISA +26)
Dew Point12°C (33% RH)
Heat Index29.0°C
AAT27.7°C
QNH1014 hPa
Density Alt8,776 ft
Elevation5,653 ft
Report Wrong Elevation
Raw Report
UBBN 240630Z 13008KT 9999 NSC 30/12 Q1014 R14R/CLRD// NOSIG RMK MT
OP QFE686=

Extra information for UBBN:More info

Metar Taf Metar & Taf Last 4 Metars F.Rules Stats Wind Profile Meteogram Temp Stats Airport Information Weather charts Add Link Nearby VenuesMetar ALERT Operation Metar Decoded Social comments